Terminal Aerodrome Forecast
Issued by NWS

Home | Current Version | Previous Version | Text Only | Print | Product List | Glossary On
Versions: 1 2 3 4 5 6 7 8 9 10 11 12 13 14 15 16 17 18 19 20
000
FTUS43 KBIS 271100
TAFMOT
TAF
KMOT 271134Z 2712/2812 25008KT P6SM SCT015 OVC045
      TEMPO 2713/2714 SCT015 BKN060
     FM271400 25007KT P6SM SCT020 SCT070
     FM271700 25008KT P6SM SCT030 BKN060
     FM280000 30006KT P6SM BKN025 OVC045
     FM280300 35007KT 5SM -SN BR BKN015 OVC025=

USA.gov is the U.S. government's official web portal to all federal, state and local government web resources and services.